Time;durP1;ratioP1;P1;durP2;ratioP2;P2;SDS_P1;SDS_P2;PMS_P1;PMS_P2;Temp;Humidity;BMP_temperature;BMP_pressure;BME280_temperature;BME280_humidity;BME280_pressure;Samples;Min_cycle;Max_cycle;Signal;HPM_P1;HPM_P2
2022/02/08 00:00:27;;;;;;;6.68;1.67;;;;;;;-2.46;100.00;94328.25;2100872;28;20026;-80
2022/02/08 00:01:29;;;;;;;12.63;2.60;;;;;;;-2.49;100.00;94321.03;2113536;28;20533;-79
2022/02/08 00:02:34;;;;;;;12.10;1.65;;;;;;;-2.46;100.00;94325.63;2104640;28;20027;-80
2022/02/08 00:03:34;;;;;;;11.57;1.92;;;;;;;-2.50;100.00;94327.31;2100705;28;20044;-79
2022/02/08 00:04:35;;;;;;;23.75;2.88;;;;;;;-2.48;100.00;94322.56;2097634;28;20016;-78
2022/02/08 00:05:37;;;;;;;9.57;2.85;;;;;;;-2.45;100.00;94327.19;2102271;28;20016;-80
2022/02/08 00:06:46;;;;;;;11.95;2.08;;;;;;;-2.45;100.00;94327.19;2096836;28;20605;-80
2022/02/08 00:07:51;;;;;;;12.30;2.33;;;;;;;-2.46;100.00;94321.16;2099023;28;20060;-79
2022/02/08 00:08:52;;;;;;;12.40;2.03;;;;;;;-2.49;100.00;94323.66;2094967;28;20020;-80
2022/02/08 00:09:53;;;;;;;11.00;2.17;;;;;;;-2.49;100.00;94323.66;2096296;28;20040;-79
2022/02/08 00:10:54;;;;;;;9.77;2.92;;;;;;;-2.42;100.00;94324.72;2096439;28;20086;-80
2022/02/08 00:11:55;;;;;;;7.85;2.05;;;;;;;-2.20;100.00;94331.72;2096412;28;20845;-80
2022/02/08 00:12:57;;;;;;;10.75;2.92;;;;;;;-2.29;100.00;94331.69;2097787;28;20373;-80
2022/02/08 00:13:58;;;;;;;11.30;2.28;;;;;;;-2.33;100.00;94328.16;2104118;28;20449;-81
2022/02/08 00:14:59;;;;;;;8.25;2.10;;;;;;;-2.32;100.00;94334.16;2095811;28;20039;-80
2022/02/08 00:16:00;;;;;;;11.80;2.42;;;;;;;-2.33;100.00;94325.56;2094946;28;20021;-81
2022/02/08 00:17:01;;;;;;;12.45;1.70;;;;;;;-2.28;100.00;94329.88;2094320;28;20504;-80
2022/02/08 00:18:03;;;;;;;10.60;2.47;;;;;;;-2.21;100.00;94330.19;2096877;28;20090;-79
2022/02/08 00:19:04;;;;;;;11.82;2.40;;;;;;;-2.25;100.00;94331.09;2096149;28;20016;-81
2022/02/08 00:20:07;;;;;;;8.40;2.00;;;;;;;-2.27;100.00;94331.41;2094125;28;20021;-79
2022/02/08 00:21:08;;;;;;;16.70;1.77;;;;;;;-2.27;100.00;94328.78;2097868;28;20023;-80
2022/02/08 00:22:09;;;;;;;8.05;1.85;;;;;;;-2.24;100.00;94330.78;2113747;28;20034;-79
2022/02/08 00:23:10;;;;;;;9.25;1.92;;;;;;;-2.23;100.00;94319.25;2114581;28;20016;-81
2022/02/08 00:24:11;;;;;;;9.77;1.50;;;;;;;-2.23;100.00;94329.72;2105947;28;20099;-80
2022/02/08 00:25:12;;;;;;;9.52;2.50;;;;;;;-2.16;100.00;94329.25;2098823;28;20078;-80
2022/02/08 00:26:14;;;;;;;11.23;2.30;;;;;;;-2.20;100.00;94329.09;2105209;28;20107;-83
2022/02/08 00:27:15;;;;;;;8.73;1.88;;;;;;;-2.20;100.00;94331.72;2103566;28;20075;-80
2022/02/08 00:28:17;;;;;;;10.20;1.50;;;;;;;-2.17;100.00;94325.09;2095778;28;20100;-80
2022/02/08 00:29:18;;;;;;;11.80;1.83;;;;;;;-2.15;100.00;94323.75;2095811;28;20052;-79
2022/02/08 00:30:19;;;;;;;17.05;2.08;;;;;;;-2.04;100.00;94329.44;2097738;28;20021;-79
2022/02/08 00:31:20;;;;;;;6.03;1.83;;;;;;;-2.06;100.00;94329.00;2106158;28;20419;-80
2022/02/08 00:32:21;;;;;;;7.93;1.50;;;;;;;-2.11;100.00;94329.91;2107202;28;20027;-79
2022/02/08 00:33:22;;;;;;;13.73;2.10;;;;;;;-2.11;100.00;94329.91;2106036;28;20070;-80
2022/02/08 00:34:23;;;;;;;12.45;2.28;;;;;;;-2.07;100.00;94328.19;2113647;28;20112;-81
2022/02/08 00:35:24;;;;;;;6.00;1.77;;;;;;;-2.11;100.00;94326.50;2105865;28;20047;-80
2022/02/08 00:36:25;;;;;;;12.55;2.22;;;;;;;-2.10;100.00;94330.69;2097018;28;20020;-80
2022/02/08 00:37:33;;;;;;;11.80;2.30;;;;;;;-2.10;100.00;94328.06;2086276;28;20096;-80
2022/02/08 00:38:35;;;;;;;7.50;2.50;;;;;;;-2.11;100.00;94329.91;2105688;28;20028;-81
2022/02/08 00:39:36;;;;;;;11.75;1.75;;;;;;;-2.12;100.00;94336.22;2105747;28;20350;-79
2022/02/08 00:40:37;;;;;;;12.70;2.03;;;;;;;-2.11;100.00;94329.91;2097514;28;20027;-81
2022/02/08 00:41:39;;;;;;;9.43;2.00;;;;;;;-2.10;100.00;94333.28;2110655;28;20012;-79
2022/02/08 00:42:40;;;;;;;15.13;2.28;;;;;;;-2.07;100.00;94335.28;2114770;28;20024;-81
2022/02/08 00:44:54;;;;;;;8.40;1.88;;;;;;;-1.95;100.00;94327.59;2111556;28;20357;-78
2022/02/08 00:46:01;;;;;;;5.55;1.65;;;;;;;-1.96;100.00;94341.03;2113887;28;20024;-80
2022/02/08 00:47:20;;;;;;;8.25;2.05;;;;;;;-1.94;100.00;94339.63;2105634;28;20113;-81
2022/02/08 00:49:30;;;;;;;11.43;2.00;;;;;;;-1.86;100.00;94336.25;2097652;28;20020;-78
2022/02/08 00:50:31;;;;;;;6.95;1.65;;;;;;;-1.88;100.00;94335.78;2105409;28;20024;-79
2022/02/08 00:51:41;;;;;;;8.90;2.03;;;;;;;-1.92;100.00;94349.81;2094108;28;20021;-80
2022/02/08 00:52:42;;;;;;;11.32;2.00;;;;;;;-1.92;100.00;94342.72;2098528;28;20103;-80
2022/02/08 00:53:43;;;;;;;11.07;1.85;;;;;;;-1.91;100.00;94346.88;2098587;28;20031;-80
2022/02/08 00:54:48;;;;;;;12.25;2.10;;;;;;;-1.95;100.00;94347.81;2105815;28;20368;-80
2022/02/08 00:55:49;;;;;;;4.75;1.50;;;;;;;-2.00;100.00;94345.31;2106538;28;20058;-80
2022/02/08 00:56:50;;;;;;;8.07;2.05;;;;;;;-1.96;100.00;94352.28;2106676;28;20016;-79
2022/02/08 00:57:51;;;;;;;7.18;1.35;;;;;;;-1.92;100.00;94361.06;2105903;28;20020;-81
2022/02/08 00:58:52;;;;;;;10.18;1.80;;;;;;;-1.89;100.00;94355.22;2097861;28;20442;-80
2022/02/08 00:59:53;;;;;;;8.52;1.85;;;;;;;-1.88;100.00;94359.38;2097562;28;20063;-81
2022/02/08 01:00:54;;;;;;;8.07;1.73;;;;;;;-1.75;100.00;94362.19;2102285;28;20842;-80
2022/02/08 01:01:55;;;;;;;11.55;2.58;;;;;;;-1.85;100.00;94360.59;2113662;28;20031;-80
2022/02/08 01:02:58;;;;;;;6.43;1.55;;;;;;;-1.94;100.00;94360.59;2105879;28;20046;-79
2022/02/08 01:03:59;;;;;;;8.32;1.85;;;;;;;-1.96;100.00;94364.59;2089487;28;20039;-81
2022/02/08 01:05:03;;;;;;;8.13;1.70;;;;;;;-1.96;100.00;94367.22;2095414;28;20016;-79
2022/02/08 01:06:06;;;;;;;9.55;1.63;;;;;;;-1.95;100.00;94372.16;2105997;28;20504;-78
2022/02/08 01:07:09;;;;;;;6.28;1.50;;;;;;;-1.93;100.00;94367.38;2105520;28;20074;-81
2022/02/08 01:08:10;;;;;;;8.85;2.10;;;;;;;-1.97;100.00;94360.44;2105615;28;20022;-80
2022/02/08 01:10:14;;;;;;;10.73;2.15;;;;;;;-1.93;100.00;94364.78;2096012;28;20046;-79
2022/02/08 01:11:17;;;;;;;11.68;1.98;;;;;;;-1.95;100.00;94368.75;2105546;28;20016;-81
2022/02/08 01:12:19;;;;;;;10.93;1.88;;;;;;;-1.99;100.00;94368.59;2104013;28;20466;-80
2022/02/08 01:13:20;;;;;;;5.50;1.92;;;;;;;-2.03;100.00;94365.81;2105682;28;20043;-81
2022/02/08 01:14:25;;;;;;;11.15;1.75;;;;;;;-2.06;100.00;94374.28;2089226;28;20033;-81
2022/02/08 01:15:26;;;;;;;7.68;1.48;;;;;;;-2.04;100.00;94368.75;2088829;28;20020;-80
2022/02/08 01:16:27;;;;;;;4.60;1.40;;;;;;;-1.97;100.00;94357.81;2084674;28;20561;-81
2022/02/08 01:17:28;;;;;;;7.65;1.77;;;;;;;-1.95;100.00;94368.75;2080581;28;20025;-81
2022/02/08 01:18:33;;;;;;;8.27;2.08;;;;;;;-1.98;100.00;94359.66;2078936;28;20119;-81
2022/02/08 01:19:35;;;;;;;10.25;1.50;;;;;;;-1.99;100.00;94365.97;2096108;28;20107;-81
2022/02/08 01:20:38;;;;;;;7.00;1.67;;;;;;;-2.07;100.00;94364.88;2103556;28;20031;-80
2022/02/08 01:21:39;;;;;;;4.60;1.50;;;;;;;-2.03;100.00;94365.03;2097500;28;20103;-81
2022/02/08 01:22:42;;;;;;;11.68;1.95;;;;;;;-2.03;100.00;94360.56;2099417;28;20017;-79
2022/02/08 01:23:42;;;;;;;6.47;1.65;;;;;;;-1.99;100.00;94367.81;2087346;28;20017;-81
2022/02/08 01:24:45;;;;;;;10.27;1.80;;;;;;;-1.99;100.00;94365.97;2088679;28;20094;-80
2022/02/08 01:25:54;;;;;;;7.90;1.77;;;;;;;-1.99;100.00;94367.81;2087133;28;20041;-81
2022/02/08 01:27:05;;;;;;;6.55;1.42;;;;;;;-1.96;100.00;94362.75;2092961;28;20017;-79
2022/02/08 01:28:24;;;;;;;12.77;2.00;;;;;;;-1.98;100.00;94369.34;2097808;28;20070;-80
2022/02/08 01:29:41;;;;;;;5.28;1.38;;;;;;;-2.05;100.00;94373.22;2094379;28;20013;-80
2022/02/08 01:30:47;;;;;;;8.63;1.73;;;;;;;-2.05;100.00;94365.34;2086475;28;20028;-79
2022/02/08 01:31:50;;;;;;;10.65;1.88;;;;;;;-2.07;100.00;94369.34;2097950;28;20500;-80
2022/02/08 01:35:53;;;;;;;8.93;2.22;;;;;;;-1.88;100.00;94369.84;2097834;28;20028;-79
2022/02/08 01:37:05;;;;;;;10.73;1.80;;;;;;;-1.95;100.00;94374.00;2102917;28;20077;-80
2022/02/08 01:38:29;;;;;;;7.22;2.00;;;;;;;-1.96;100.00;94369.84;2097598;28;20024;-80
2022/02/08 01:40:04;;;;;;;13.73;2.00;;;;;;;-2.00;100.00;94364.44;2098465;28;20092;-80
2022/02/08 01:42:29;;;;;;;9.60;1.73;;;;;;;-1.95;100.00;94366.13;2105469;28;20397;-80
2022/02/08 01:45:05;;;;;;;5.97;1.50;;;;;;;-1.94;100.00;94370.28;2099961;28;20028;-79
2022/02/08 01:46:33;;;;;;;9.00;1.70;;;;;;;-1.70;100.00;94370.66;2096575;28;20031;-79
2022/02/08 01:47:59;;;;;;;8.05;1.58;;;;;;;-1.81;100.00;94366.78;2097049;28;20048;-80
2022/02/08 01:49:13;;;;;;;11.70;1.60;;;;;;;-1.81;100.00;94364.16;2092432;28;20027;-79
2022/02/08 01:50:17;;;;;;;6.35;1.83;;;;;;;-1.85;100.00;94374.47;2092212;28;20072;-80
2022/02/08 01:51:18;;;;;;;11.05;1.70;;;;;;;-1.74;100.00;94374.97;2105431;28;20032;-78
2022/02/08 01:52:19;;;;;;;13.35;1.90;;;;;;;-1.69;100.00;94376.66;2097058;28;20020;-81
2022/02/08 01:53:22;;;;;;;9.15;1.77;;;;;;;-1.57;100.00;94367.13;2099244;28;20038;-80
2022/02/08 01:54:24;;;;;;;12.43;2.40;;;;;;;-1.40;100.00;94366.34;2105330;28;20035;-80
2022/02/08 01:55:25;;;;;;;9.70;1.35;;;;;;;-1.50;100.00;94373.75;2089279;28;20021;-81
2022/02/08 01:56:26;;;;;;;10.63;2.42;;;;;;;-1.62;100.00;94369.91;2084211;28;20045;-80
2022/02/08 01:57:27;;;;;;;6.60;1.50;;;;;;;-1.67;100.00;94364.78;2100219;28;20028;-79
2022/02/08 01:58:28;;;;;;;8.60;1.98;;;;;;;-1.67;100.00;94364.78;2105608;28;20030;-80
2022/02/08 01:59:29;;;;;;;11.55;1.58;;;;;;;-1.77;100.00;94368.47;2099113;28;20016;-80
2022/02/08 02:00:31;;;;;;;12.90;2.30;;;;;;;-1.86;100.00;94372.94;2105392;28;20020;-79
2022/02/08 02:01:32;;;;;;;8.75;1.50;;;;;;;-1.82;100.00;94373.09;2105354;28;20069;-80
2022/02/08 02:02:33;;;;;;;12.93;1.65;;;;;;;-1.89;100.00;94372.75;2088440;28;20529;-78
2022/02/08 02:03:35;;;;;;;17.60;1.80;;;;;;;-1.87;100.00;94374.00;2097075;28;20023;-79
2022/02/08 02:04:36;;;;;;;8.07;1.75;;;;;;;-1.89;100.00;94372.75;2105058;28;20047;-80
2022/02/08 02:05:37;;;;;;;9.60;2.03;;;;;;;-1.84;100.00;94373.41;2088834;28;20191;-80
2022/02/08 02:06:39;;;;;;;10.90;1.88;;;;;;;-1.85;100.00;94369.22;2088872;28;20043;-79
2022/02/08 02:07:47;;;;;;;7.78;1.80;;;;;;;-1.87;100.00;94368.00;2091180;28;20472;-81
2022/02/08 02:08:48;;;;;;;6.90;1.35;;;;;;;-1.91;100.00;94372.31;2104185;28;20176;-80
2022/02/08 02:11:04;;;;;;;;;;;;;;;-1.87;100.00;94368.78;2144651;27;20535;-78
2022/02/08 02:12:08;;;;;;;9.35;1.52;;;;;;;-1.82;100.00;94373.88;2123264;27;20356;-79
2022/02/08 02:13:20;;;;;;;6.28;1.67;;;;;;;-1.83;100.00;94368.94;2109333;27;20130;-79
2022/02/08 02:14:22;;;;;;;13.30;2.10;;;;;;;-1.78;100.00;94372.19;2124970;27;20397;-80
2022/02/08 02:15:23;;;;;;;9.18;1.63;;;;;;;-1.86;100.00;94377.41;2124002;27;20028;-80
2022/02/08 02:16:40;;;;;;;7.18;1.55;;;;;;;-1.88;100.00;94367.25;2106376;28;20016;-79
2022/02/08 02:17:41;;;;;;;7.63;1.60;;;;;;;-1.93;100.00;94371.81;2119327;27;20099;-79
2022/02/08 02:18:42;;;;;;;10.85;2.08;;;;;;;-1.94;100.00;94370.28;2125781;27;20026;-79
2022/02/08 02:19:43;;;;;;;13.43;1.90;;;;;;;-1.95;100.00;94374.75;2120507;27;20066;-79
2022/02/08 02:20:45;;;;;;;12.50;1.85;;;;;;;-1.97;100.00;94369.06;2119958;27;20008;-80
2022/02/08 02:21:46;;;;;;;8.85;1.55;;;;;;;-1.95;100.00;94368.75;2121495;27;20100;-81
2022/02/08 02:22:47;;;;;;;9.02;1.70;;;;;;;-1.99;100.00;94370.44;2118813;27;20019;-81
2022/02/08 02:23:49;;;;;;;9.52;2.20;;;;;;;-2.09;100.00;94364.41;2101849;27;20377;-79
2022/02/08 02:24:50;;;;;;;10.07;2.00;;;;;;;-2.13;100.00;94363.47;2112537;28;20155;-80
2022/02/08 02:25:51;;;;;;;8.07;1.42;;;;;;;-2.08;100.00;94360.72;2127044;27;20026;-79
2022/02/08 02:26:52;;;;;;;8.93;1.63;;;;;;;-2.08;100.00;94365.94;2129113;27;20047;-80
2022/02/08 02:27:57;;;;;;;8.27;1.75;;;;;;;-1.92;100.00;94368.91;2117481;27;20387;-79
2022/02/08 02:28:58;;;;;;;10.23;2.70;;;;;;;-1.95;100.00;94372.16;2110035;28;20471;-79
2022/02/08 02:29:59;;;;;;;12.32;1.70;;;;;;;-1.96;100.00;94369.84;2107632;28;20102;-79
2022/02/08 02:31:00;;;;;;;10.23;1.83;;;;;;;-1.96;100.00;94372.47;2105521;27;20021;-79
2022/02/08 02:32:01;;;;;;;13.32;2.15;;;;;;;-2.00;100.00;94371.53;2118225;27;20080;-80
2022/02/08 02:33:04;;;;;;;8.63;1.73;;;;;;;-1.96;100.00;94369.84;2116205;27;20019;-79
2022/02/08 02:34:05;;;;;;;6.88;1.60;;;;;;;-2.00;100.00;94374.16;2108057;28;20115;-79
2022/02/08 02:35:07;;;;;;;7.45;1.38;;;;;;;-2.05;100.00;94362.72;2101209;28;20027;-81
2022/02/08 02:36:08;;;;;;;9.25;2.15;;;;;;;-2.07;100.00;94361.47;2113937;28;20112;-80
2022/02/08 02:37:08;;;;;;;7.97;2.15;;;;;;;-2.08;100.00;94357.31;2113714;28;20023;-79
2022/02/08 02:38:09;;;;;;;7.72;1.92;;;;;;;-2.06;100.00;94355.19;2102461;28;20103;-79
2022/02/08 02:39:12;;;;;;;4.22;1.17;;;;;;;-2.06;100.00;94363.03;2112992;27;20044;-80
2022/02/08 02:40:14;;;;;;;11.35;1.67;;;;;;;-2.06;100.00;94361.19;2121409;27;20810;-80
2022/02/08 02:41:16;;;;;;;9.65;1.73;;;;;;;-2.12;100.00;94362.41;2112722;28;20104;-81
2022/02/08 02:42:18;;;;;;;11.50;1.70;;;;;;;-2.22;100.00;94352.22;2110170;27;20065;-80
2022/02/08 02:43:20;;;;;;;7.18;1.60;;;;;;;-2.23;100.00;94358.53;2113400;27;20023;-79
2022/02/08 02:44:24;;;;;;;8.13;1.67;;;;;;;-2.25;100.00;94360.66;2112473;27;20024;-80
2022/02/08 02:45:26;;;;;;;11.88;1.58;;;;;;;-2.22;100.00;94356.69;2113724;28;20028;-80
2022/02/08 02:46:27;;;;;;;10.15;2.20;;;;;;;-2.24;100.00;94362.19;2124915;27;20392;-80
2022/02/08 02:47:28;;;;;;;7.72;1.40;;;;;;;-2.28;100.00;94356.81;2118312;27;20024;-80
2022/02/08 02:48:29;;;;;;;9.32;1.98;;;;;;;-2.24;100.00;94350.97;2124900;27;20118;-80
2022/02/08 02:49:30;;;;;;;5.90;1.55;;;;;;;-2.23;100.00;94358.53;2122713;27;20023;-80
2022/02/08 02:50:31;;;;;;;11.45;1.63;;;;;;;-2.26;100.00;94353.91;2130498;27;20465;-80
2022/02/08 02:51:36;;;;;;;6.80;2.00;;;;;;;-2.31;100.00;94351.41;2110263;28;20115;-81
2022/02/08 02:52:37;;;;;;;10.15;2.08;;;;;;;-2.34;100.00;94352.78;2109032;27;20215;-81
2022/02/08 02:53:37;;;;;;;14.05;2.10;;;;;;;-2.34;100.00;94352.78;2106499;28;20020;-80
2022/02/08 02:54:39;;;;;;;8.23;2.00;;;;;;;-2.26;100.00;94348.66;2103261;28;20705;-80
2022/02/08 02:55:39;;;;;;;12.07;2.25;;;;;;;-2.30;100.00;94352.94;2106711;28;20028;-80
2022/02/08 02:56:41;;;;;;;13.15;2.30;;;;;;;-2.23;100.00;94349.91;2114349;28;20027;-81
2022/02/08 02:57:49;;;;;;;4.28;1.50;;;;;;;-2.20;100.00;94354.50;2105996;28;20039;-80
2022/02/08 02:58:52;;;;;;;8.40;1.38;;;;;;;-2.27;100.00;94352.34;2111680;27;20023;-81
2022/02/08 03:00:04;;;;;;;9.38;1.90;;;;;;;-2.26;100.00;94353.13;2125236;27;20045;-81
2022/02/08 03:01:28;;;;;;;8.02;1.40;;;;;;;-2.30;100.00;94352.94;2120430;27;20030;-79
2022/02/08 03:19:13;;;;;;;13.15;1.73;;;;;;;-2.47;100.00;94371.22;2113054;28;19911;-79
2022/02/08 03:20:13;;;;;;;20.13;1.65;;;;;;;-2.52;100.00;94361.66;2107976;28;20048;-80
2022/02/08 03:21:15;;;;;;;3.83;1.27;;;;;;;-2.57;100.00;94357.31;2114390;28;20102;-81
2022/02/08 03:22:32;;;;;;;8.32;1.33;;;;;;;-2.61;100.00;94361.63;2098882;28;20024;-80
2022/02/08 03:23:34;;;;;;;6.88;1.40;;;;;;;-2.58;100.00;94371.50;2105237;27;20372;-80
2022/02/08 03:24:35;;;;;;;12.27;2.08;;;;;;;-2.62;100.00;94373.16;2109471;28;20475;-80
2022/02/08 03:25:36;;;;;;;9.57;1.70;;;;;;;-2.62;100.00;94373.16;2106649;28;20048;-80
2022/02/08 03:26:37;;;;;;;7.43;1.63;;;;;;;-2.61;100.00;94373.94;2100154;28;20548;-80
2022/02/08 03:27:38;;;;;;;7.50;2.10;;;;;;;-2.62;100.00;94370.56;2100679;28;20017;-80
2022/02/08 03:28:39;;;;;;;11.70;1.67;;;;;;;-2.47;100.00;94372.00;2093555;28;20074;-80
2022/02/08 03:29:40;;;;;;;9.52;1.65;;;;;;;-2.55;100.00;94375.34;2100231;28;20036;-81
2022/02/08 03:30:41;;;;;;;11.68;1.92;;;;;;;-2.64;100.00;94377.16;2106240;28;20043;-81
2022/02/08 03:31:42;;;;;;;9.95;1.70;;;;;;;-2.70;100.00;94380.97;2104405;28;20028;-81
2022/02/08 03:32:44;;;;;;;15.32;1.90;;;;;;;-2.72;100.00;94378.66;2107815;28;20365;-79
2022/02/08 03:33:46;;;;;;;8.15;1.67;;;;;;;-2.76;100.00;94376.94;2113649;28;20023;-79
2022/02/08 03:34:47;;;;;;;8.63;1.80;;;;;;;-2.73;100.00;94381.56;2100153;28;20112;-79
2022/02/08 03:35:50;;;;;;;6.78;2.20;;;;;;;-2.68;100.00;94376.19;2091626;28;20021;-79
2022/02/08 03:36:52;;;;;;;7.32;1.67;;;;;;;-2.65;100.00;94381.59;2106728;28;20027;-79
2022/02/08 03:38:00;;;;;;;3.80;1.23;;;;;;;-2.57;100.00;94380.13;2106923;28;20016;-80
2022/02/08 03:39:16;;;;;;;7.78;1.63;;;;;;;-2.64;100.00;94385.00;2117965;27;20874;-80
2022/02/08 03:40:30;;;;;;;8.88;1.70;;;;;;;-2.72;100.00;94378.66;2109920;28;20499;-80
2022/02/08 03:41:39;;;;;;;4.60;1.25;;;;;;;-2.60;100.00;94386.72;2108637;27;20020;-81
2022/02/08 03:42:58;;;;;;;8.55;2.15;;;;;;;-2.69;100.00;94382.50;2112672;27;20031;-79
2022/02/08 03:43:58;;;;;;;6.90;1.20;;;;;;;-2.66;100.00;94381.91;2112053;27;20020;-80
2022/02/08 03:45:01;;;;;;;12.85;2.22;;;;;;;-2.65;100.00;94386.84;2106967;28;20039;-81
2022/02/08 03:46:07;;;;;;;8.27;2.25;;;;;;;-2.70;100.00;94383.59;2110548;27;20089;-80
2022/02/08 03:47:08;;;;;;;8.85;1.38;;;;;;;-2.58;100.00;94383.81;2121248;27;20010;-78
2022/02/08 03:48:12;;;;;;;13.40;2.10;;;;;;;-2.64;100.00;94390.22;2114750;28;20020;-80
2022/02/08 03:49:14;;;;;;;7.50;1.73;;;;;;;-2.69;100.00;94383.28;2110064;28;20019;-81
2022/02/08 03:50:15;;;;;;;5.85;1.30;;;;;;;-2.72;100.00;94388.34;2107824;27;20036;-79
2022/02/08 03:51:19;;;;;;;8.45;1.63;;;;;;;-2.70;100.00;94383.59;2108983;28;20027;-80
2022/02/08 03:52:23;;;;;;;8.65;1.52;;;;;;;-2.72;100.00;94388.34;2107396;28;20122;-80
2022/02/08 03:53:26;;;;;;;8.70;1.55;;;;;;;-2.81;100.00;94393.53;2104388;28;20126;-81
2022/02/08 03:54:27;;;;;;;8.18;1.48;;;;;;;-2.79;100.00;94386.16;2093629;28;21089;-80
2022/02/08 03:55:28;;;;;;;8.77;1.90;;;;;;;-2.63;100.00;94391.78;2099794;28;20218;-79
2022/02/08 03:56:29;;;;;;;6.45;1.45;;;;;;;-2.74;100.00;94391.25;2101969;28;20020;-79
2022/02/08 03:57:30;;;;;;;12.98;1.65;;;;;;;-2.77;100.00;94389.25;2109095;28;20024;-81
2022/02/08 03:58:30;;;;;;;5.45;1.15;;;;;;;-2.69;100.00;94390.38;2114474;28;20051;-80
2022/02/08 03:59:31;;;;;;;11.02;1.85;;;;;;;-2.60;100.00;94391.94;2101947;28;20020;-80
2022/02/08 04:00:42;;;;;;;10.23;1.50;;;;;;;-2.69;100.00;94396.38;2106266;28;20433;-81
2022/02/08 04:02:57;;;;;;;12.15;1.55;;;;;;;-2.76;100.00;94398.66;2102397;27;20398;-81
2022/02/08 04:05:41;;;;;;;11.60;1.70;;;;;;;-2.75;100.00;94402.81;2115415;27;20019;-81
2022/02/08 04:06:39;;;;;;;7.07;1.40;;;;;;;-2.83;100.00;94401.69;2121282;27;20037;-80
2022/02/08 04:08:02;;;;;;;8.20;1.80;;;;;;;-2.75;100.00;94404.66;2106850;27;20012;-81
2022/02/08 04:09:05;;;;;;;8.70;1.25;;;;;;;-2.87;100.00;94400.72;2108186;28;20107;-79
2022/02/08 04:10:07;;;;;;;8.43;1.63;;;;;;;-2.94;100.00;94404.84;2100858;28;20028;-79
2022/02/08 04:11:09;;;;;;;6.78;1.90;;;;;;;-2.97;100.00;94401.00;2106646;28;20371;-78
2022/02/08 04:12:19;;;;;;;8.63;1.98;;;;;;;-2.90;100.00;94403.94;2100081;28;20416;-80
2022/02/08 04:13:27;;;;;;;11.43;1.85;;;;;;;-2.89;100.00;94404.72;2092666;28;20187;-80
2022/02/08 04:16:42;;;;;;;9.18;1.50;;;;;;;-2.89;100.00;94402.13;2114559;28;20020;-79
2022/02/08 04:33:41;;;;;;;8.95;1.77;;;;;;;-2.90;100.00;94411.00;2116532;27;20404;-79
2022/02/08 04:35:05;;;;;;;6.60;1.88;;;;;;;-2.94;100.00;94408.25;2112770;28;20028;-81
2022/02/08 04:40:49;;;;;;;8.60;1.63;;;;;;;-2.71;100.00;94405.59;2113351;27;20050;-80
2022/02/08 04:42:07;;;;;;;7.40;1.48;;;;;;;-2.72;100.00;94409.28;2108225;28;20027;-80
2022/02/08 04:43:30;;;;;;;13.13;2.00;;;;;;;-2.45;100.00;94405.72;2114520;27;20084;-80
2022/02/08 04:45:52;;;;;;;11.05;1.58;;;;;;;-2.35;100.00;94408.84;2123770;27;20022;-80
2022/02/08 04:48:22;;;;;;;8.90;1.67;;;;;;;-2.43;100.00;94406.19;2109418;28;20019;-78
2022/02/08 04:49:23;;;;;;;12.77;1.88;;;;;;;-2.29;100.00;94406.84;2106146;28;20540;-80
2022/02/08 04:50:27;;;;;;;8.07;1.73;;;;;;;-2.30;100.00;94395.63;2107450;28;20027;-81
2022/02/08 04:52:30;;;;;;;6.53;1.73;;;;;;;-2.30;100.00;94406.09;2115421;27;20020;-79
2022/02/08 04:53:38;;;;;;;13.50;1.88;;;;;;;-2.27;100.00;94412.59;2106321;28;20357;-81
2022/02/08 04:54:58;;;;;;;13.25;1.63;;;;;;;-2.36;100.00;94401.31;2098980;28;20031;-80
2022/02/08 04:56:16;;;;;;;13.73;2.35;;;;;;;-2.31;100.00;94401.16;2108263;27;20021;-81
2022/02/08 04:58:36;;;;;;;12.00;2.92;;;;;;;-2.38;100.00;94411.28;2099924;28;20155;-81
2022/02/08 05:47:27;;;;;;;8.15;1.65;;;;;;;-2.79;100.00;94407.09;2114257;27;20024;-78
2022/02/08 05:48:33;;;;;;;12.95;2.28;;;;;;;-2.72;100.00;94404.03;2101194;28;20031;-79
2022/02/08 05:49:52;;;;;;;13.02;2.10;;;;;;;-2.71;100.00;94401.13;2087732;28;20947;-81
2022/02/08 05:51:03;;;;;;;12.95;2.55;;;;;;;-2.78;100.00;94400.78;2102583;28;20064;-80
2022/02/08 05:53:28;;;;;;;6.57;1.73;;;;;;;-2.76;100.00;94397.88;2108961;28;20047;-79
2022/02/08 05:54:29;;;;;;;10.55;2.47;;;;;;;-2.83;100.00;94396.44;2107670;28;20031;-79
2022/02/08 05:55:31;;;;;;;7.57;2.10;;;;;;;-2.87;100.00;94397.34;2104795;28;20052;-80
2022/02/08 05:56:32;;;;;;;7.53;2.00;;;;;;;-2.94;100.00;94391.75;2089347;28;20032;-79
2022/02/08 05:57:33;;;;;;;14.13;2.30;;;;;;;-2.94;100.00;94392.56;2097461;28;20055;-80
2022/02/08 05:58:34;;;;;;;13.50;2.33;;;;;;;-2.93;100.00;94385.47;2097370;28;20091;-79
2022/02/08 05:59:35;;;;;;;11.00;2.38;;;;;;;-2.91;100.00;94385.94;2097596;28;20120;-80
2022/02/08 06:00:39;;;;;;;8.77;2.10;;;;;;;-2.93;100.00;94395.94;2089316;28;20038;-80
2022/02/08 06:01:40;;;;;;;7.47;2.10;;;;;;;-2.97;100.00;94392.38;2098072;28;20044;-79
2022/02/08 06:02:41;;;;;;;13.68;2.00;;;;;;;-2.95;100.00;94387.59;2105641;28;20046;-80
2022/02/08 06:03:42;;;;;;;7.95;2.03;;;;;;;-2.97;100.00;94392.38;2097308;28;20060;-79
2022/02/08 06:04:44;;;;;;;7.47;2.00;;;;;;;-2.81;100.00;94396.94;2097363;28;20037;-80
2022/02/08 06:05:45;;;;;;;6.57;1.90;;;;;;;-2.77;100.00;94402.31;2105602;28;20020;-80
2022/02/08 06:06:46;;;;;;;9.57;1.58;;;;;;;-2.78;100.00;94398.94;2092483;28;20016;-79
2022/02/08 06:07:47;;;;;;;9.10;1.77;;;;;;;-2.75;100.00;94400.19;2105815;28;20035;-80
2022/02/08 06:08:48;;;;;;;8.85;1.75;;;;;;;-2.70;100.00;94410.53;2114160;28;20027;-79
2022/02/08 06:09:54;;;;;;;6.28;1.63;;;;;;;-2.58;100.00;94418.59;2097338;28;20043;-80
2022/02/08 06:11:05;;;;;;;6.13;2.10;;;;;;;-2.59;100.00;94417.06;2081966;28;20567;-81
2022/02/08 06:12:06;;;;;;;7.60;1.75;;;;;;;-2.67;100.00;94417.78;2100049;28;20057;-80
2022/02/08 06:13:07;;;;;;;12.18;1.95;;;;;;;-2.64;100.00;94413.78;2097350;28;20466;-79
2022/02/08 06:14:08;;;;;;;9.85;2.10;;;;;;;-2.55;100.00;94418.00;2088824;28;20024;-79
2022/02/08 06:15:11;;;;;;;12.05;2.70;;;;;;;-2.53;100.00;94415.84;2089037;28;20025;-80
2022/02/08 06:16:17;;;;;;;4.07;1.70;;;;;;;-2.53;100.00;94410.63;2097803;28;20038;-80
2022/02/08 06:17:19;;;;;;;15.88;2.28;;;;;;;-2.51;100.00;94404.31;2102654;28;20356;-81
2022/02/08 06:18:20;;;;;;;11.18;2.55;;;;;;;-2.45;100.00;94411.75;2105742;28;20047;-81
2022/02/08 06:19:21;;;;;;;11.10;2.38;;;;;;;-2.45;100.00;94406.50;2097892;28;20622;-79
2022/02/08 06:20:22;;;;;;;7.28;1.58;;;;;;;-2.44;100.00;94420.34;2106371;28;20126;-79
2022/02/08 06:21:24;;;;;;;12.63;2.30;;;;;;;-2.40;100.00;94406.38;2102948;28;20020;-79
2022/02/08 06:22:25;;;;;;;20.02;8.52;;;;;;;-2.37;100.00;94411.00;2091866;28;20029;-82
2022/02/08 06:23:26;;;;;;;28.65;12.75;;;;;;;-2.41;100.00;94406.69;2117004;28;20071;-80
2022/02/08 06:24:27;;;;;;;29.95;12.98;;;;;;;-2.47;100.00;94416.47;2114384;28;20032;-81
2022/02/08 06:25:28;;;;;;;38.33;15.80;;;;;;;-2.39;100.00;94422.84;2091349;28;20042;-81
2022/02/08 06:26:29;;;;;;;16.58;7.50;;;;;;;-2.40;100.00;94419.47;2099835;28;20028;-80
2022/02/08 06:27:31;;;;;;;19.50;4.38;;;;;;;-2.45;100.00;94419.59;2087484;28;20082;-80
2022/02/08 06:28:46;;;;;;;14.15;3.67;;;;;;;-2.39;100.00;94410.53;2100667;28;20043;-79
2022/02/08 06:29:47;;;;;;;12.45;3.17;;;;;;;-2.35;100.00;94419.31;2103496;28;20055;-80
2022/02/08 06:30:48;;;;;;;10.32;2.88;;;;;;;-2.39;100.00;94418.38;2095832;28;20051;-80
2022/02/08 06:31:49;;;;;;;15.02;2.45;;;;;;;-2.20;100.00;94415.53;2087802;28;20029;-80
2022/02/08 06:32:53;;;;;;;9.30;3.70;;;;;;;-2.33;100.00;94419.81;2095551;28;20717;-81
2022/02/08 06:33:54;;;;;;;6.53;2.35;;;;;;;-2.34;100.00;94422.72;2092516;28;20032;-79
2022/02/08 06:34:57;;;;;;;8.68;2.45;;;;;;;-2.39;100.00;94422.84;2087789;28;20029;-79
2022/02/08 06:35:58;;;;;;;8.93;2.70;;;;;;;-2.48;100.00;94416.81;2096964;28;20031;-79
2022/02/08 06:37:09;;;;;;;9.40;2.40;;;;;;;-2.54;100.00;94422.16;2104163;28;20028;-81
2022/02/08 06:38:13;;;;;;;10.30;2.45;;;;;;;-2.60;100.00;94415.50;2103445;28;20024;-80
2022/02/08 06:39:18;;;;;;;12.32;2.58;;;;;;;-2.59;100.00;94418.88;2104538;28;20457;-79
2022/02/08 06:40:19;;;;;;;7.05;2.28;;;;;;;-2.60;100.00;94423.34;2105373;28;20035;-79
2022/02/08 06:41:20;;;;;;;9.15;2.40;;;;;;;-2.57;100.00;94428.00;2099475;28;20032;-80
2022/02/08 06:42:21;;;;;;;8.43;2.13;;;;;;;-2.59;100.00;94422.31;2101194;28;20063;-79